Weather at Pilgrims Rest Airport

Public forecast

Using degrees Celsius for public forecast. Weather courtesy of forecast.io.

Closest aviation weather report (METAR) to Pilgrims Rest Airport

Closest report is Hoedspruit Air Force Base Airport, 28.6 nm (53.0 km) NNE. Retrieved 2021/06/15 19:00 UTC (39 minutes ago):

FAHS 151900Z AUTO 07004KT //// 17/09 Q1022

Closest aviation forecast (TAF) to Pilgrims Rest Airport

Forecast is more than 12 hours old.

Closest forecast is Hoedspruit Air Force Base Airport, 28.6 nm (53.0 km) NNE. Retrieved 2017/05/23 04:01 UTC (4 years ago):

TAF FAHS 230300Z 2304/2315 VRB02KT CAVOK TX29/2312ZTN12/2304Z